sensor_id;sensor_type;location;lat;lon;timestamp;P1;durP1;ratioP1;P2;durP2;ratioP2
81351;SDS011;70809;52.184;13.422;2023-11-19T00:00:18;7.85;;;5.25;;
81351;SDS011;70809;52.184;13.422;2023-11-19T00:01:20;8.05;;;5.47;;
81351;SDS011;70809;52.184;13.422;2023-11-19T00:02:22;7.63;;;5.13;;
81351;SDS011;70809;52.184;13.422;2023-11-19T00:03:24;11.32;;;5.72;;
81351;SDS011;70809;52.184;13.422;2023-11-19T00:04:25;9.30;;;5.93;;
81351;SDS011;70809;52.184;13.422;2023-11-19T00:05:27;6.10;;;4.63;;
81351;SDS011;70809;52.184;13.422;2023-11-19T00:06:29;7.35;;;4.82;;
81351;SDS011;70809;52.184;13.422;2023-11-19T00:07:31;7.97;;;5.38;;
81351;SDS011;70809;52.184;13.422;2023-11-19T00:08:36;8.70;;;5.63;;
81351;SDS011;70809;52.184;13.422;2023-11-19T00:09:37;10.48;;;5.30;;
81351;SDS011;70809;52.184;13.422;2023-11-19T00:10:41;9.77;;;5.30;;
81351;SDS011;70809;52.184;13.422;2023-11-19T00:11:43;7.65;;;4.63;;
81351;SDS011;70809;52.184;13.422;2023-11-19T00:12:55;7.88;;;4.78;;
81351;SDS011;70809;52.184;13.422;2023-11-19T00:13:56;7.25;;;5.10;;
81351;SDS011;70809;52.184;13.422;2023-11-19T00:14:58;8.60;;;5.10;;
81351;SDS011;70809;52.184;13.422;2023-11-19T00:16:00;8.43;;;5.40;;
81351;SDS011;70809;52.184;13.422;2023-11-19T00:17:02;7.80;;;5.07;;
81351;SDS011;70809;52.184;13.422;2023-11-19T00:18:04;7.38;;;4.82;;
81351;SDS011;70809;52.184;13.422;2023-11-19T00:19:06;8.27;;;4.95;;
81351;SDS011;70809;52.184;13.422;2023-11-19T00:20:08;7.82;;;4.72;;
81351;SDS011;70809;52.184;13.422;2023-11-19T00:21:10;8.57;;;4.80;;
81351;SDS011;70809;52.184;13.422;2023-11-19T00:22:12;8.65;;;5.03;;
81351;SDS011;70809;52.184;13.422;2023-11-19T00:23:14;7.13;;;4.82;;
81351;SDS011;70809;52.184;13.422;2023-11-19T00:24:16;7.65;;;4.75;;
81351;SDS011;70809;52.184;13.422;2023-11-19T00:25:18;10.65;;;5.32;;
81351;SDS011;70809;52.184;13.422;2023-11-19T00:26:21;7.57;;;4.72;;
81351;SDS011;70809;52.184;13.422;2023-11-19T00:27:26;6.65;;;4.68;;
81351;SDS011;70809;52.184;13.422;2023-11-19T00:28:28;11.52;;;5.28;;
81351;SDS011;70809;52.184;13.422;2023-11-19T00:29:30;10.18;;;5.30;;
81351;SDS011;70809;52.184;13.422;2023-11-19T00:30:32;8.52;;;4.78;;
81351;SDS011;70809;52.184;13.422;2023-11-19T00:31:34;11.35;;;5.47;;
81351;SDS011;70809;52.184;13.422;2023-11-19T00:32:36;8.88;;;4.80;;
81351;SDS011;70809;52.184;13.422;2023-11-19T00:33:37;8.38;;;5.28;;
81351;SDS011;70809;52.184;13.422;2023-11-19T00:34:50;7.07;;;4.50;;
81351;SDS011;70809;52.184;13.422;2023-11-19T00:35:52;8.25;;;4.72;;
81351;SDS011;70809;52.184;13.422;2023-11-19T00:36:54;8.77;;;5.32;;
81351;SDS011;70809;52.184;13.422;2023-11-19T00:37:56;9.55;;;4.50;;
81351;SDS011;70809;52.184;13.422;2023-11-19T00:38:58;7.93;;;4.55;;
81351;SDS011;70809;52.184;13.422;2023-11-19T00:39:59;8.95;;;4.70;;
81351;SDS011;70809;52.184;13.422;2023-11-19T00:41:01;10.88;;;5.03;;
81351;SDS011;70809;52.184;13.422;2023-11-19T00:42:05;9.20;;;5.10;;
81351;SDS011;70809;52.184;13.422;2023-11-19T00:43:06;11.95;;;5.93;;
81351;SDS011;70809;52.184;13.422;2023-11-19T00:44:08;8.05;;;4.53;;
81351;SDS011;70809;52.184;13.422;2023-11-19T00:45:11;7.40;;;4.88;;
81351;SDS011;70809;52.184;13.422;2023-11-19T00:46:13;8.40;;;5.20;;
81351;SDS011;70809;52.184;13.422;2023-11-19T00:47:14;7.22;;;4.72;;
81351;SDS011;70809;52.184;13.422;2023-11-19T00:48:16;10.25;;;5.13;;
81351;SDS011;70809;52.184;13.422;2023-11-19T00:49:18;10.38;;;5.03;;
81351;SDS011;70809;52.184;13.422;2023-11-19T00:50:20;8.32;;;5.20;;
81351;SDS011;70809;52.184;13.422;2023-11-19T00:51:22;10.18;;;4.72;;
81351;SDS011;70809;52.184;13.422;2023-11-19T00:52:23;8.63;;;5.60;;
81351;SDS011;70809;52.184;13.422;2023-11-19T00:53:25;8.82;;;5.20;;
81351;SDS011;70809;52.184;13.422;2023-11-19T00:54:27;8.13;;;4.78;;
81351;SDS011;70809;52.184;13.422;2023-11-19T00:55:29;10.35;;;4.95;;
81351;SDS011;70809;52.184;13.422;2023-11-19T00:56:30;8.60;;;5.28;;
81351;SDS011;70809;52.184;13.422;2023-11-19T00:57:34;8.90;;;4.72;;
81351;SDS011;70809;52.184;13.422;2023-11-19T00:58:35;8.98;;;5.18;;
81351;SDS011;70809;52.184;13.422;2023-11-19T00:59:37;9.15;;;5.38;;
81351;SDS011;70809;52.184;13.422;2023-11-19T01:00:39;7.40;;;4.95;;
81351;SDS011;70809;52.184;13.422;2023-11-19T01:01:41;7.75;;;4.57;;
81351;SDS011;70809;52.184;13.422;2023-11-19T01:02:42;9.18;;;4.88;;
81351;SDS011;70809;52.184;13.422;2023-11-19T01:03:44;7.25;;;4.80;;
81351;SDS011;70809;52.184;13.422;2023-11-19T01:04:46;7.88;;;4.90;;
81351;SDS011;70809;52.184;13.422;2023-11-19T01:05:48;7.20;;;4.63;;
81351;SDS011;70809;52.184;13.422;2023-11-19T01:06:50;7.30;;;4.72;;
81351;SDS011;70809;52.184;13.422;2023-11-19T01:07:52;9.63;;;5.30;;
81351;SDS011;70809;52.184;13.422;2023-11-19T01:08:53;7.78;;;4.75;;
81351;SDS011;70809;52.184;13.422;2023-11-19T01:09:55;8.38;;;4.93;;
81351;SDS011;70809;52.184;13.422;2023-11-19T01:10:58;8.88;;;5.53;;
81351;SDS011;70809;52.184;13.422;2023-11-19T01:12:00;7.15;;;4.68;;
81351;SDS011;70809;52.184;13.422;2023-11-19T01:13:03;9.75;;;5.50;;
81351;SDS011;70809;52.184;13.422;2023-11-19T01:14:05;7.75;;;4.63;;
81351;SDS011;70809;52.184;13.422;2023-11-19T01:15:07;7.93;;;4.70;;
81351;SDS011;70809;52.184;13.422;2023-11-19T01:16:09;8.88;;;4.63;;
81351;SDS011;70809;52.184;13.422;2023-11-19T01:17:11;9.18;;;5.45;;
81351;SDS011;70809;52.184;13.422;2023-11-19T01:18:13;8.30;;;5.25;;
81351;SDS011;70809;52.184;13.422;2023-11-19T01:19:15;7.95;;;5.00;;
81351;SDS011;70809;52.184;13.422;2023-11-19T01:20:18;8.45;;;5.18;;
81351;SDS011;70809;52.184;13.422;2023-11-19T01:21:20;8.15;;;4.45;;
81351;SDS011;70809;52.184;13.422;2023-11-19T01:22:22;7.82;;;4.68;;
81351;SDS011;70809;52.184;13.422;2023-11-19T01:23:24;8.02;;;5.05;;
81351;SDS011;70809;52.184;13.422;2023-11-19T01:24:26;6.75;;;4.63;;
81351;SDS011;70809;52.184;13.422;2023-11-19T01:25:27;6.88;;;4.78;;
81351;SDS011;70809;52.184;13.422;2023-11-19T01:26:29;8.02;;;5.13;;
81351;SDS011;70809;52.184;13.422;2023-11-19T01:27:31;9.00;;;4.63;;
81351;SDS011;70809;52.184;13.422;2023-11-19T01:28:34;6.55;;;4.40;;
81351;SDS011;70809;52.184;13.422;2023-11-19T01:29:36;9.25;;;5.15;;
81351;SDS011;70809;52.184;13.422;2023-11-19T01:30:37;7.93;;;4.45;;
81351;SDS011;70809;52.184;13.422;2023-11-19T01:31:39;7.70;;;4.80;;
81351;SDS011;70809;52.184;13.422;2023-11-19T01:32:43;9.38;;;4.95;;
81351;SDS011;70809;52.184;13.422;2023-11-19T01:33:45;7.13;;;4.32;;
81351;SDS011;70809;52.184;13.422;2023-11-19T01:34:47;10.75;;;4.28;;
81351;SDS011;70809;52.184;13.422;2023-11-19T01:35:49;7.45;;;4.32;;
81351;SDS011;70809;52.184;13.422;2023-11-19T01:36:51;7.32;;;4.55;;
81351;SDS011;70809;52.184;13.422;2023-11-19T01:37:53;6.93;;;4.38;;
81351;SDS011;70809;52.184;13.422;2023-11-19T01:38:55;7.82;;;4.22;;
81351;SDS011;70809;52.184;13.422;2023-11-19T01:39:57;7.82;;;4.85;;
81351;SDS011;70809;52.184;13.422;2023-11-19T01:41:00;6.80;;;4.80;;
81351;SDS011;70809;52.184;13.422;2023-11-19T01:42:02;7.95;;;4.53;;
81351;SDS011;70809;52.184;13.422;2023-11-19T01:43:04;6.45;;;4.22;;
81351;SDS011;70809;52.184;13.422;2023-11-19T01:44:09;7.15;;;4.25;;
81351;SDS011;70809;52.184;13.422;2023-11-19T01:45:11;9.07;;;4.78;;
81351;SDS011;70809;52.184;13.422;2023-11-19T01:46:23;6.95;;;4.60;;
81351;SDS011;70809;52.184;13.422;2023-11-19T01:47:27;6.88;;;4.50;;
81351;SDS011;70809;52.184;13.422;2023-11-19T01:48:31;8.23;;;4.40;;
81351;SDS011;70809;52.184;13.422;2023-11-19T01:49:35;6.95;;;4.97;;
81351;SDS011;70809;52.184;13.422;2023-11-19T01:50:37;8.80;;;4.50;;
81351;SDS011;70809;52.184;13.422;2023-11-19T01:51:38;7.93;;;4.20;;
81351;SDS011;70809;52.184;13.422;2023-11-19T01:52:41;9.30;;;4.82;;
81351;SDS011;70809;52.184;13.422;2023-11-19T01:53:43;8.38;;;5.10;;
81351;SDS011;70809;52.184;13.422;2023-11-19T01:54:45;6.25;;;4.15;;
81351;SDS011;70809;52.184;13.422;2023-11-19T01:55:47;9.57;;;4.70;;
81351;SDS011;70809;52.184;13.422;2023-11-19T01:56:51;8.48;;;4.55;;
81351;SDS011;70809;52.184;13.422;2023-11-19T01:59:00;7.03;;;4.05;;
81351;SDS011;70809;52.184;13.422;2023-11-19T02:00:05;15.80;;;4.80;;
81351;SDS011;70809;52.184;13.422;2023-11-19T02:01:14;8.82;;;4.53;;
81351;SDS011;70809;52.184;13.422;2023-11-19T02:02:17;5.82;;;4.00;;
81351;SDS011;70809;52.184;13.422;2023-11-19T02:03:19;11.75;;;5.22;;
81351;SDS011;70809;52.184;13.422;2023-11-19T02:04:22;11.63;;;4.32;;
81351;SDS011;70809;52.184;13.422;2023-11-19T02:05:25;6.03;;;4.15;;
81351;SDS011;70809;52.184;13.422;2023-11-19T02:06:27;8.18;;;4.53;;
81351;SDS011;70809;52.184;13.422;2023-11-19T02:07:29;7.13;;;4.13;;
81351;SDS011;70809;52.184;13.422;2023-11-19T02:08:31;6.22;;;3.97;;
81351;SDS011;70809;52.184;13.422;2023-11-19T02:09:33;7.45;;;4.25;;
81351;SDS011;70809;52.184;13.422;2023-11-19T02:10:35;9.45;;;4.68;;
81351;SDS011;70809;52.184;13.422;2023-11-19T02:11:36;5.78;;;3.95;;
81351;SDS011;70809;52.184;13.422;2023-11-19T02:12:41;6.43;;;4.00;;
81351;SDS011;70809;52.184;13.422;2023-11-19T02:13:43;6.70;;;4.40;;
81351;SDS011;70809;52.184;13.422;2023-11-19T02:14:45;7.10;;;4.10;;
81351;SDS011;70809;52.184;13.422;2023-11-19T02:15:48;7.63;;;4.78;;
81351;SDS011;70809;52.184;13.422;2023-11-19T02:16:50;7.75;;;4.15;;
81351;SDS011;70809;52.184;13.422;2023-11-19T02:17:52;7.18;;;4.25;;
81351;SDS011;70809;52.184;13.422;2023-11-19T02:18:54;6.55;;;4.00;;
81351;SDS011;70809;52.184;13.422;2023-11-19T02:19:55;8.63;;;4.50;;
81351;SDS011;70809;52.184;13.422;2023-11-19T02:20:58;8.23;;;4.25;;
81351;SDS011;70809;52.184;13.422;2023-11-19T02:22:00;9.48;;;4.57;;
81351;SDS011;70809;52.184;13.422;2023-11-19T02:23:01;7.88;;;3.90;;
81351;SDS011;70809;52.184;13.422;2023-11-19T02:24:05;7.63;;;3.92;;
81351;SDS011;70809;52.184;13.422;2023-11-19T02:25:11;7.82;;;4.45;;
81351;SDS011;70809;52.184;13.422;2023-11-19T02:26:18;7.88;;;4.43;;
81351;SDS011;70809;52.184;13.422;2023-11-19T02:27:30;8.93;;;3.95;;
81351;SDS011;70809;52.184;13.422;2023-11-19T02:28:41;5.72;;;3.78;;
81351;SDS011;70809;52.184;13.422;2023-11-19T02:29:43;7.30;;;4.38;;
81351;SDS011;70809;52.184;13.422;2023-11-19T02:30:45;7.00;;;4.30;;
81351;SDS011;70809;52.184;13.422;2023-11-19T02:31:47;6.78;;;4.28;;
81351;SDS011;70809;52.184;13.422;2023-11-19T02:32:49;7.90;;;4.20;;
81351;SDS011;70809;52.184;13.422;2023-11-19T02:33:51;7.07;;;4.03;;
81351;SDS011;70809;52.184;13.422;2023-11-19T02:34:52;7.40;;;4.30;;
81351;SDS011;70809;52.184;13.422;2023-11-19T02:35:54;6.53;;;3.95;;
81351;SDS011;70809;52.184;13.422;2023-11-19T02:36:56;5.50;;;3.40;;
81351;SDS011;70809;52.184;13.422;2023-11-19T02:38:00;8.20;;;4.07;;
81351;SDS011;70809;52.184;13.422;2023-11-19T02:39:02;7.68;;;3.95;;
81351;SDS011;70809;52.184;13.422;2023-11-19T02:40:05;6.03;;;3.55;;
81351;SDS011;70809;52.184;13.422;2023-11-19T02:41:07;8.10;;;4.05;;
81351;SDS011;70809;52.184;13.422;2023-11-19T02:42:10;7.03;;;3.75;;
81351;SDS011;70809;52.184;13.422;2023-11-19T02:43:13;6.88;;;4.50;;
81351;SDS011;70809;52.184;13.422;2023-11-19T02:44:15;7.43;;;4.45;;
81351;SDS011;70809;52.184;13.422;2023-11-19T02:45:17;6.88;;;3.92;;
81351;SDS011;70809;52.184;13.422;2023-11-19T02:46:19;7.05;;;3.80;;
81351;SDS011;70809;52.184;13.422;2023-11-19T02:47:21;5.70;;;3.42;;
81351;SDS011;70809;52.184;13.422;2023-11-19T02:48:24;6.30;;;3.58;;
81351;SDS011;70809;52.184;13.422;2023-11-19T02:49:26;5.47;;;3.75;;
81351;SDS011;70809;52.184;13.422;2023-11-19T02:50:29;7.03;;;3.60;;
81351;SDS011;70809;52.184;13.422;2023-11-19T02:51:31;5.90;;;3.83;;
81351;SDS011;70809;52.184;13.422;2023-11-19T02:52:33;5.97;;;3.40;;
81351;SDS011;70809;52.184;13.422;2023-11-19T02:53:34;6.80;;;4.07;;
81351;SDS011;70809;52.184;13.422;2023-11-19T02:54:36;6.00;;;3.70;;
81351;SDS011;70809;52.184;13.422;2023-11-19T02:55:38;8.02;;;3.67;;
81351;SDS011;70809;52.184;13.422;2023-11-19T02:56:42;7.03;;;3.75;;
81351;SDS011;70809;52.184;13.422;2023-11-19T02:57:43;7.13;;;3.47;;
81351;SDS011;70809;52.184;13.422;2023-11-19T02:58:47;10.48;;;4.15;;
81351;SDS011;70809;52.184;13.422;2023-11-19T02:59:49;7.15;;;3.72;;
81351;SDS011;70809;52.184;13.422;2023-11-19T03:00:50;6.25;;;3.80;;
81351;SDS011;70809;52.184;13.422;2023-11-19T03:01:52;5.95;;;3.00;;
81351;SDS011;70809;52.184;13.422;2023-11-19T03:02:54;5.85;;;3.95;;
81351;SDS011;70809;52.184;13.422;2023-11-19T03:03:57;5.00;;;3.65;;
81351;SDS011;70809;52.184;13.422;2023-11-19T03:04:59;5.82;;;3.40;;
81351;SDS011;70809;52.184;13.422;2023-11-19T03:06:02;7.05;;;3.72;;
81351;SDS011;70809;52.184;13.422;2023-11-19T03:07:04;5.97;;;3.90;;
81351;SDS011;70809;52.184;13.422;2023-11-19T03:08:06;6.72;;;3.58;;
81351;SDS011;70809;52.184;13.422;2023-11-19T03:09:08;6.18;;;3.63;;
81351;SDS011;70809;52.184;13.422;2023-11-19T03:10:09;5.00;;;3.10;;
81351;SDS011;70809;52.184;13.422;2023-11-19T03:11:12;5.65;;;3.75;;
81351;SDS011;70809;52.184;13.422;2023-11-19T03:12:13;6.07;;;3.53;;
81351;SDS011;70809;52.184;13.422;2023-11-19T03:13:15;6.90;;;4.05;;
81351;SDS011;70809;52.184;13.422;2023-11-19T03:14:19;7.25;;;4.60;;
81351;SDS011;70809;52.184;13.422;2023-11-19T03:15:22;7.68;;;3.70;;
81351;SDS011;70809;52.184;13.422;2023-11-19T03:16:24;6.00;;;3.60;;
81351;SDS011;70809;52.184;13.422;2023-11-19T03:17:26;7.38;;;3.85;;
81351;SDS011;70809;52.184;13.422;2023-11-19T03:18:27;5.65;;;3.30;;
81351;SDS011;70809;52.184;13.422;2023-11-19T03:19:29;5.53;;;3.72;;
81351;SDS011;70809;52.184;13.422;2023-11-19T03:20:31;7.68;;;4.28;;
81351;SDS011;70809;52.184;13.422;2023-11-19T03:21:33;5.13;;;3.60;;
81351;SDS011;70809;52.184;13.422;2023-11-19T03:22:35;6.00;;;4.00;;
81351;SDS011;70809;52.184;13.422;2023-11-19T03:23:38;6.68;;;3.65;;
81351;SDS011;70809;52.184;13.422;2023-11-19T03:24:40;5.63;;;3.85;;
81351;SDS011;70809;52.184;13.422;2023-11-19T03:25:41;5.65;;;3.72;;
81351;SDS011;70809;52.184;13.422;2023-11-19T03:26:47;8.82;;;3.88;;
81351;SDS011;70809;52.184;13.422;2023-11-19T03:27:49;7.65;;;3.72;;
81351;SDS011;70809;52.184;13.422;2023-11-19T03:28:51;5.45;;;3.53;;
81351;SDS011;70809;52.184;13.422;2023-11-19T03:29:54;8.30;;;4.47;;
81351;SDS011;70809;52.184;13.422;2023-11-19T03:30:56;7.00;;;4.03;;
81351;SDS011;70809;52.184;13.422;2023-11-19T03:31:58;7.03;;;4.05;;
81351;SDS011;70809;52.184;13.422;2023-11-19T03:32:59;7.30;;;4.32;;
81351;SDS011;70809;52.184;13.422;2023-11-19T03:34:01;6.85;;;4.05;;
81351;SDS011;70809;52.184;13.422;2023-11-19T03:35:04;7.72;;;4.32;;
81351;SDS011;70809;52.184;13.422;2023-11-19T03:36:07;7.80;;;4.65;;
81351;SDS011;70809;52.184;13.422;2023-11-19T03:37:09;6.82;;;4.25;;
81351;SDS011;70809;52.184;13.422;2023-11-19T03:38:11;6.85;;;4.57;;
81351;SDS011;70809;52.184;13.422;2023-11-19T03:39:12;7.25;;;4.57;;
81351;SDS011;70809;52.184;13.422;2023-11-19T03:40:14;8.90;;;5.13;;
81351;SDS011;70809;52.184;13.422;2023-11-19T03:41:16;6.78;;;4.40;;
81351;SDS011;70809;52.184;13.422;2023-11-19T03:42:18;7.28;;;4.18;;
81351;SDS011;70809;52.184;13.422;2023-11-19T03:43:20;7.70;;;4.80;;
81351;SDS011;70809;52.184;13.422;2023-11-19T03:44:22;6.22;;;3.97;;
81351;SDS011;70809;52.184;13.422;2023-11-19T03:45:25;9.20;;;4.20;;
81351;SDS011;70809;52.184;13.422;2023-11-19T03:46:27;6.78;;;3.83;;
81351;SDS011;70809;52.184;13.422;2023-11-19T03:47:29;6.57;;;3.92;;
81351;SDS011;70809;52.184;13.422;2023-11-19T03:48:31;8.35;;;4.10;;
81351;SDS011;70809;52.184;13.422;2023-11-19T03:49:32;7.43;;;4.70;;
81351;SDS011;70809;52.184;13.422;2023-11-19T03:50:34;7.15;;;4.18;;
81351;SDS011;70809;52.184;13.422;2023-11-19T03:51:36;10.90;;;5.20;;
81351;SDS011;70809;52.184;13.422;2023-11-19T03:52:38;9.35;;;4.78;;
81351;SDS011;70809;52.184;13.422;2023-11-19T03:53:42;11.43;;;5.10;;
81351;SDS011;70809;52.184;13.422;2023-11-19T03:54:44;8.85;;;4.63;;
81351;SDS011;70809;52.184;13.422;2023-11-19T03:55:46;10.88;;;5.43;;
81351;SDS011;70809;52.184;13.422;2023-11-19T03:56:48;10.20;;;5.30;;
81351;SDS011;70809;52.184;13.422;2023-11-19T03:57:50;9.85;;;5.10;;
81351;SDS011;70809;52.184;13.422;2023-11-19T03:58:52;10.25;;;5.20;;
81351;SDS011;70809;52.184;13.422;2023-11-19T03:59:54;8.73;;;5.45;;
81351;SDS011;70809;52.184;13.422;2023-11-19T04:00:57;10.23;;;5.60;;
81351;SDS011;70809;52.184;13.422;2023-11-19T04:01:59;9.48;;;5.20;;
81351;SDS011;70809;52.184;13.422;2023-11-19T04:03:01;9.95;;;5.53;;
81351;SDS011;70809;52.184;13.422;2023-11-19T04:04:03;12.13;;;6.05;;
81351;SDS011;70809;52.184;13.422;2023-11-19T04:05:05;12.07;;;5.88;;
81351;SDS011;70809;52.184;13.422;2023-11-19T04:06:08;8.95;;;5.72;;
81351;SDS011;70809;52.184;13.422;2023-11-19T04:07:10;10.52;;;5.88;;
81351;SDS011;70809;52.184;13.422;2023-11-19T04:08:11;8.88;;;5.50;;
81351;SDS011;70809;52.184;13.422;2023-11-19T04:09:13;9.57;;;5.57;;
81351;SDS011;70809;52.184;13.422;2023-11-19T04:10:15;10.52;;;5.93;;
81351;SDS011;70809;52.184;13.422;2023-11-19T04:11:17;9.65;;;5.53;;
81351;SDS011;70809;52.184;13.422;2023-11-19T04:12:19;12.05;;;6.25;;
81351;SDS011;70809;52.184;13.422;2023-11-19T04:13:20;9.85;;;6.15;;
81351;SDS011;70809;52.184;13.422;2023-11-19T04:14:22;9.63;;;5.95;;
81351;SDS011;70809;52.184;13.422;2023-11-19T04:15:24;10.93;;;5.57;;
81351;SDS011;70809;52.184;13.422;2023-11-19T04:16:27;14.15;;;7.28;;
81351;SDS011;70809;52.184;13.422;2023-11-19T04:17:29;14.38;;;6.22;;
81351;SDS011;70809;52.184;13.422;2023-11-19T04:18:31;11.63;;;6.30;;
81351;SDS011;70809;52.184;13.422;2023-11-19T04:19:33;10.90;;;6.38;;
81351;SDS011;70809;52.184;13.422;2023-11-19T04:20:34;14.18;;;6.45;;
81351;SDS011;70809;52.184;13.422;2023-11-19T04:21:36;10.82;;;6.38;;
81351;SDS011;70809;52.184;13.422;2023-11-19T04:22:40;11.65;;;6.32;;
81351;SDS011;70809;52.184;13.422;2023-11-19T04:23:42;13.85;;;7.40;;
81351;SDS011;70809;52.184;13.422;2023-11-19T04:24:44;14.43;;;6.50;;
81351;SDS011;70809;52.184;13.422;2023-11-19T04:25:46;13.20;;;6.55;;
81351;SDS011;70809;52.184;13.422;2023-11-19T04:26:47;12.70;;;7.30;;
81351;SDS011;70809;52.184;13.422;2023-11-19T04:27:53;12.73;;;6.40;;
81351;SDS011;70809;52.184;13.422;2023-11-19T04:28:55;14.05;;;7.68;;
81351;SDS011;70809;52.184;13.422;2023-11-19T04:29:57;11.98;;;6.85;;
81351;SDS011;70809;52.184;13.422;2023-11-19T04:30:59;15.65;;;7.10;;
81351;SDS011;70809;52.184;13.422;2023-11-19T04:32:02;14.77;;;7.50;;
81351;SDS011;70809;52.184;13.422;2023-11-19T04:33:04;12.45;;;6.65;;
81351;SDS011;70809;52.184;13.422;2023-11-19T04:34:06;13.82;;;6.95;;
81351;SDS011;70809;52.184;13.422;2023-11-19T04:35:08;11.73;;;6.28;;
81351;SDS011;70809;52.184;13.422;2023-11-19T04:36:10;14.65;;;7.22;;
81351;SDS011;70809;52.184;13.422;2023-11-19T04:37:12;13.90;;;7.18;;
81351;SDS011;70809;52.184;13.422;2023-11-19T04:38:14;13.27;;;7.78;;
81351;SDS011;70809;52.184;13.422;2023-11-19T04:39:16;15.05;;;7.97;;
81351;SDS011;70809;52.184;13.422;2023-11-19T04:40:18;12.05;;;6.75;;
81351;SDS011;70809;52.184;13.422;2023-11-19T04:41:20;15.15;;;7.35;;
81351;SDS011;70809;52.184;13.422;2023-11-19T04:42:22;12.38;;;7.13;;
81351;SDS011;70809;52.184;13.422;2023-11-19T04:43:24;14.20;;;7.30;;
81351;SDS011;70809;52.184;13.422;2023-11-19T04:44:26;15.10;;;8.30;;
81351;SDS011;70809;52.184;13.422;2023-11-19T04:45:30;13.20;;;7.38;;
81351;SDS011;70809;52.184;13.422;2023-11-19T04:46:31;14.90;;;8.02;;
81351;SDS011;70809;52.184;13.422;2023-11-19T04:47:35;18.17;;;7.75;;
81351;SDS011;70809;52.184;13.422;2023-11-19T04:48:37;14.88;;;7.30;;
81351;SDS011;70809;52.184;13.422;2023-11-19T04:49:41;17.58;;;7.55;;
81351;SDS011;70809;52.184;13.422;2023-11-19T04:50:44;15.02;;;7.45;;
81351;SDS011;70809;52.184;13.422;2023-11-19T04:51:45;12.45;;;7.65;;
81351;SDS011;70809;52.184;13.422;2023-11-19T04:52:47;15.95;;;8.18;;
81351;SDS011;70809;52.184;13.422;2023-11-19T04:53:49;19.77;;;8.77;;
81351;SDS011;70809;52.184;13.422;2023-11-19T04:54:51;13.25;;;7.18;;
81351;SDS011;70809;52.184;13.422;2023-11-19T04:55:52;13.88;;;7.72;;
81351;SDS011;70809;52.184;13.422;2023-11-19T04:56:54;16.23;;;8.13;;
81351;SDS011;70809;52.184;13.422;2023-11-19T04:57:56;14.25;;;7.95;;
81351;SDS011;70809;52.184;13.422;2023-11-19T04:58:58;17.23;;;8.48;;
81351;SDS011;70809;52.184;13.422;2023-11-19T05:00:00;15.25;;;7.97;;
81351;SDS011;70809;52.184;13.422;2023-11-19T05:01:02;16.73;;;8.23;;
81351;SDS011;70809;52.184;13.422;2023-11-19T05:02:04;15.52;;;7.43;;
81351;SDS011;70809;52.184;13.422;2023-11-19T05:03:07;16.92;;;7.65;;
81351;SDS011;70809;52.184;13.422;2023-11-19T05:04:09;16.90;;;8.52;;
81351;SDS011;70809;52.184;13.422;2023-11-19T05:05:15;13.73;;;7.53;;
81351;SDS011;70809;52.184;13.422;2023-11-19T05:06:17;18.08;;;9.43;;
81351;SDS011;70809;52.184;13.422;2023-11-19T05:07:19;18.30;;;8.50;;
81351;SDS011;70809;52.184;13.422;2023-11-19T05:08:21;21.55;;;8.02;;
81351;SDS011;70809;52.184;13.422;2023-11-19T05:09:22;13.70;;;7.15;;
81351;SDS011;70809;52.184;13.422;2023-11-19T05:10:24;15.27;;;8.50;;
81351;SDS011;70809;52.184;13.422;2023-11-19T05:11:26;13.60;;;7.43;;
81351;SDS011;70809;52.184;13.422;2023-11-19T05:12:28;13.98;;;6.95;;
81351;SDS011;70809;52.184;13.422;2023-11-19T05:13:30;15.20;;;7.57;;
81351;SDS011;70809;52.184;13.422;2023-11-19T05:14:32;15.98;;;8.00;;
81351;SDS011;70809;52.184;13.422;2023-11-19T05:15:33;13.50;;;6.95;;
81351;SDS011;70809;52.184;13.422;2023-11-19T05:16:35;15.20;;;7.80;;
81351;SDS011;70809;52.184;13.422;2023-11-19T05:17:37;14.07;;;7.88;;
81351;SDS011;70809;52.184;13.422;2023-11-19T05:18:40;14.88;;;7.90;;
81351;SDS011;70809;52.184;13.422;2023-11-19T05:19:44;12.50;;;7.20;;
81351;SDS011;70809;52.184;13.422;2023-11-19T05:20:46;16.98;;;7.50;;
81351;SDS011;70809;52.184;13.422;2023-11-19T05:21:48;14.70;;;7.35;;
81351;SDS011;70809;52.184;13.422;2023-11-19T05:22:50;14.57;;;8.10;;
81351;SDS011;70809;52.184;13.422;2023-11-19T05:23:52;12.30;;;6.97;;
81351;SDS011;70809;52.184;13.422;2023-11-19T05:24:54;16.58;;;8.38;;
81351;SDS011;70809;52.184;13.422;2023-11-19T05:25:56;12.95;;;6.88;;
81351;SDS011;70809;52.184;13.422;2023-11-19T05:26:57;13.88;;;7.35;;
81351;SDS011;70809;52.184;13.422;2023-11-19T05:27:59;13.70;;;6.75;;
81351;SDS011;70809;52.184;13.422;2023-11-19T05:29:01;18.13;;;7.97;;
81351;SDS011;70809;52.184;13.422;2023-11-19T05:30:04;15.35;;;7.95;;
81351;SDS011;70809;52.184;13.422;2023-11-19T05:31:06;16.85;;;7.60;;
81351;SDS011;70809;52.184;13.422;2023-11-19T05:32:08;14.63;;;6.85;;
81351;SDS011;70809;52.184;13.422;2023-11-19T05:33:11;15.93;;;7.95;;
81351;SDS011;70809;52.184;13.422;2023-11-19T05:34:16;14.43;;;8.05;;
81351;SDS011;70809;52.184;13.422;2023-11-19T05:35:18;17.88;;;8.15;;
81351;SDS011;70809;52.184;13.422;2023-11-19T05:36:21;21.65;;;9.07;;
81351;SDS011;70809;52.184;13.422;2023-11-19T05:37:24;17.27;;;8.25;;
81351;SDS011;70809;52.184;13.422;2023-11-19T05:38:26;15.82;;;8.10;;
81351;SDS011;70809;52.184;13.422;2023-11-19T05:39:28;14.43;;;7.72;;
81351;SDS011;70809;52.184;13.422;2023-11-19T05:40:31;14.77;;;7.53;;
81351;SDS011;70809;52.184;13.422;2023-11-19T05:41:33;12.93;;;6.68;;
81351;SDS011;70809;52.184;13.422;2023-11-19T05:42:37;12.98;;;6.85;;
81351;SDS011;70809;52.184;13.422;2023-11-19T05:43:39;11.35;;;6.75;;
81351;SDS011;70809;52.184;13.422;2023-11-19T05:44:41;13.80;;;6.65;;
81351;SDS011;70809;52.184;13.422;2023-11-19T05:45:43;14.45;;;7.40;;
81351;SDS011;70809;52.184;13.422;2023-11-19T05:46:45;11.35;;;6.22;;
81351;SDS011;70809;52.184;13.422;2023-11-19T05:47:47;11.05;;;6.60;;
81351;SDS011;70809;52.184;13.422;2023-11-19T05:48:48;11.43;;;6.43;;
81351;SDS011;70809;52.184;13.422;2023-11-19T05:49:53;9.05;;;5.50;;
81351;SDS011;70809;52.184;13.422;2023-11-19T05:50:55;13.20;;;6.35;;
81351;SDS011;70809;52.184;13.422;2023-11-19T05:51:57;13.93;;;6.70;;
81351;SDS011;70809;52.184;13.422;2023-11-19T05:53:02;16.55;;;7.00;;
81351;SDS011;70809;52.184;13.422;2023-11-19T05:54:06;12.77;;;6.43;;
81351;SDS011;70809;52.184;13.422;2023-11-19T05:55:11;14.73;;;7.07;;
81351;SDS011;70809;52.184;13.422;2023-11-19T05:56:13;16.77;;;7.32;;
81351;SDS011;70809;52.184;13.422;2023-11-19T05:57:15;11.15;;;5.88;;
81351;SDS011;70809;52.184;13.422;2023-11-19T05:58:17;14.13;;;7.22;;
81351;SDS011;70809;52.184;13.422;2023-11-19T05:59:20;10.35;;;5.75;;
81351;SDS011;70809;52.184;13.422;2023-11-19T06:00:22;11.70;;;6.00;;
81351;SDS011;70809;52.184;13.422;2023-11-19T06:01:24;14.98;;;7.43;;
81351;SDS011;70809;52.184;13.422;2023-11-19T06:02:25;12.65;;;7.13;;
81351;SDS011;70809;52.184;13.422;2023-11-19T06:03:27;14.13;;;6.72;;
81351;SDS011;70809;52.184;13.422;2023-11-19T06:04:29;17.05;;;8.02;;
81351;SDS011;70809;52.184;13.422;2023-11-19T06:05:35;16.02;;;7.28;;
81351;SDS011;70809;52.184;13.422;2023-11-19T06:06:37;14.85;;;6.88;;
81351;SDS011;70809;52.184;13.422;2023-11-19T06:07:39;15.23;;;7.20;;
81351;SDS011;70809;52.184;13.422;2023-11-19T06:08:42;15.30;;;6.80;;